createdAt,value
2022-10-13T00:01:27.704Z,8.32
2022-10-13T00:03:56.314Z,8.22
2022-10-13T00:06:26.556Z,8.20
2022-10-13T00:08:56.759Z,8.16
2022-10-13T00:11:27.337Z,8.11
2022-10-13T00:13:58.490Z,8.06
2022-10-13T00:16:29.037Z,8.05
2022-10-13T00:18:57.506Z,8.00
2022-10-13T00:21:27.596Z,7.97
2022-10-13T00:23:57.769Z,8.00
2022-10-13T00:26:27.788Z,8.02
2022-10-13T00:28:56.581Z,8.01
2022-10-13T00:31:27.196Z,7.99
2022-10-13T00:33:55.994Z,7.95
2022-10-13T00:36:24.887Z,7.99
2022-10-13T00:38:53.904Z,7.90
2022-10-13T00:41:23.487Z,7.87
2022-10-13T00:44:01.195Z,7.82
2022-10-13T00:46:31.823Z,7.71
2022-10-13T00:49:03.583Z,7.65
2022-10-13T00:51:35.721Z,7.57
2022-10-13T00:54:07.413Z,7.48
2022-10-13T00:56:40.089Z,7.41
2022-10-13T00:59:23.291Z,7.40
2022-10-13T01:01:51.840Z,7.35
2022-10-13T01:04:23.015Z,7.28
2022-10-13T01:06:52.300Z,7.30
2022-10-13T01:09:20.331Z,7.29
2022-10-13T01:12:00.734Z,7.29
2022-10-13T01:14:35.693Z,7.32
2022-10-13T01:17:13.409Z,7.36
2022-10-13T01:20:10.882Z,7.32
2022-10-13T01:22:58.113Z,7.46
2022-10-13T01:25:45.909Z,7.39
2022-10-13T01:28:50.645Z,7.52
2022-10-13T01:31:27.827Z,7.58
2022-10-13T01:34:06.027Z,7.59
2022-10-13T01:36:45.378Z,7.63
2022-10-13T01:39:24.391Z,7.64
2022-10-13T01:41:57.480Z,7.65
2022-10-13T01:44:32.323Z,7.71
2022-10-13T01:47:04.449Z,7.73
2022-10-13T01:49:37.161Z,7.74
2022-10-13T01:52:10.136Z,7.71
2022-10-13T01:54:38.465Z,7.78
2022-10-13T01:57:26.938Z,7.84
2022-10-13T01:59:55.677Z,7.86
2022-10-13T02:02:33.601Z,7.76
2022-10-13T02:05:10.526Z,7.86
2022-10-13T02:07:45.862Z,7.83
2022-10-13T02:10:21.453Z,7.87
2022-10-13T02:12:54.899Z,7.85
2022-10-13T02:15:27.285Z,7.75
2022-10-13T02:17:57.429Z,7.69
2022-10-13T02:20:25.616Z,7.74
2022-10-13T02:23:02.601Z,7.66
2022-10-13T02:25:32.095Z,7.60
2022-10-13T02:28:01.986Z,7.58
2022-10-13T02:30:32.122Z,7.62
2022-10-13T02:33:02.069Z,7.61
2022-10-13T02:35:31.166Z,7.52
2022-10-13T02:37:59.872Z,7.46
2022-10-13T02:40:28.419Z,7.44
2022-10-13T02:42:56.914Z,7.42
2022-10-13T02:45:25.370Z,7.44
2022-10-13T02:47:54.321Z,7.48
2022-10-13T02:50:24.336Z,7.56
2022-10-13T02:52:52.999Z,7.62
2022-10-13T02:55:21.482Z,7.70
2022-10-13T02:57:49.705Z,7.77
2022-10-13T03:00:18.277Z,7.85
2022-10-13T03:02:46.871Z,7.85
2022-10-13T03:05:15.209Z,7.83
2022-10-13T03:07:44.771Z,7.76
2022-10-13T03:10:13.101Z,7.77
2022-10-13T03:12:41.424Z,7.77
2022-10-13T03:15:10.640Z,7.74
2022-10-13T03:17:38.811Z,7.70
2022-10-13T03:20:08.524Z,7.65
2022-10-13T03:22:36.834Z,7.62
2022-10-13T03:25:08.027Z,7.58
2022-10-13T03:27:36.601Z,7.55
2022-10-13T03:30:06.202Z,7.59
2022-10-13T03:32:35.542Z,7.59
2022-10-13T03:35:03.844Z,7.60
2022-10-13T03:37:32.643Z,7.58
2022-10-13T03:40:01.502Z,7.57
2022-10-13T03:42:31.548Z,7.51
2022-10-13T03:44:59.721Z,7.52
2022-10-13T03:47:28.482Z,7.53
2022-10-13T03:49:57.613Z,7.53
2022-10-13T03:52:26.154Z,7.60
2022-10-13T03:54:54.493Z,7.62
2022-10-13T03:57:22.925Z,7.73
2022-10-13T03:59:52.528Z,7.77
2022-10-13T04:02:21.074Z,7.79
2022-10-13T04:04:49.817Z,7.79
2022-10-13T04:07:18.254Z,7.85
2022-10-13T04:09:48.171Z,7.78
2022-10-13T04:12:20.622Z,7.83
2022-10-13T04:14:49.647Z,7.82
2022-10-13T04:17:19.363Z,7.87
2022-10-13T04:19:47.866Z,7.89
2022-10-13T04:22:15.970Z,7.94
2022-10-13T04:24:44.655Z,7.98
2022-10-13T04:27:12.882Z,8.04
2022-10-13T04:29:41.510Z,8.13
2022-10-13T04:32:09.933Z,8.14
2022-10-13T04:34:40.353Z,8.19
2022-10-13T04:37:08.777Z,8.23
2022-10-13T04:39:37.286Z,8.23
2022-10-13T04:42:05.836Z,8.33
2022-10-13T04:44:34.292Z,8.37
2022-10-13T04:47:02.719Z,8.40
2022-10-13T04:49:31.159Z,8.44
2022-10-13T04:52:01.219Z,8.48
2022-10-13T04:54:29.747Z,8.50
2022-10-13T04:56:59.357Z,8.55
2022-10-13T04:59:28.504Z,8.66
2022-10-13T05:01:57.267Z,8.68
2022-10-13T05:04:25.498Z,8.71
2022-10-13T05:07:16.453Z,8.72
2022-10-13T05:09:43.876Z,8.78
2022-10-13T05:12:12.300Z,8.82
2022-10-13T05:14:40.877Z,8.82
2022-10-13T05:17:09.553Z,8.92
2022-10-13T05:19:38.585Z,8.88
2022-10-13T05:22:07.649Z,8.91
2022-10-13T05:24:38.149Z,8.92
2022-10-13T05:27:13.068Z,9.04
2022-10-13T05:29:42.484Z,9.04
2022-10-13T05:32:10.935Z,9.00
2022-10-13T05:34:39.613Z,9.00
2022-10-13T05:37:08.001Z,9.03
2022-10-13T05:39:37.115Z,9.06
2022-10-13T05:42:05.789Z,9.03
2022-10-13T05:44:36.614Z,9.16
2022-10-13T05:47:07.661Z,9.15
2022-10-13T05:49:39.995Z,9.11
2022-10-13T05:52:13.022Z,9.16
2022-10-13T05:54:44.192Z,9.15
2022-10-13T05:57:17.640Z,9.18
2022-10-13T05:59:52.412Z,9.18
2022-10-13T06:02:24.298Z,9.19
2022-10-13T06:04:55.937Z,9.20
2022-10-13T06:07:24.422Z,9.26
2022-10-13T06:09:52.814Z,9.25
2022-10-13T06:12:28.555Z,9.33
2022-10-13T06:14:58.489Z,9.34
2022-10-13T06:17:26.963Z,9.40
2022-10-13T06:19:55.137Z,9.44
2022-10-13T06:22:23.524Z,9.38
2022-10-13T06:24:51.680Z,9.41
2022-10-13T06:27:19.956Z,9.39
2022-10-13T06:29:48.265Z,9.32
2022-10-13T06:32:18.625Z,9.28
2022-10-13T06:34:47.693Z,9.25
2022-10-13T06:37:15.979Z,9.26
2022-10-13T06:39:44.359Z,9.34
2022-10-13T06:42:12.483Z,9.47
2022-10-13T06:44:40.820Z,9.53
2022-10-13T06:47:09.362Z,9.59
2022-10-13T06:49:39.102Z,9.58
2022-10-13T06:52:07.565Z,9.54
2022-10-13T06:54:36.282Z,9.64
2022-10-13T06:57:07.547Z,9.67
2022-10-13T06:59:39.465Z,9.65
2022-10-13T07:02:07.941Z,9.67
2022-10-13T07:04:36.220Z,9.72
2022-10-13T07:07:05.748Z,9.75
2022-10-13T07:09:33.949Z,9.77
2022-10-13T07:12:02.141Z,9.73
2022-10-13T07:14:30.397Z,9.77
2022-10-13T07:16:58.505Z,9.83
2022-10-13T07:19:26.725Z,9.81
2022-10-13T07:21:55.120Z,9.70
2022-10-13T07:24:25.084Z,9.78
2022-10-13T07:26:53.877Z,9.80
2022-10-13T07:29:22.942Z,9.87
2022-10-13T07:31:51.426Z,9.89
2022-10-13T07:34:19.624Z,9.77
2022-10-13T07:36:48.130Z,9.83
2022-10-13T07:39:16.372Z,9.87
2022-10-13T07:41:50.758Z,10.01
2022-10-13T07:44:20.049Z,10.05
2022-10-13T07:46:48.077Z,10.00
2022-10-13T07:49:16.817Z,10.04
2022-10-13T07:51:45.540Z,10.08
2022-10-13T07:54:13.761Z,10.17
2022-10-13T07:56:42.213Z,10.21
2022-10-13T07:59:11.883Z,10.20
2022-10-13T08:01:41.776Z,10.34
2022-10-13T08:04:09.884Z,10.42
2022-10-13T08:06:38.216Z,10.60
2022-10-13T08:09:06.488Z,10.61
2022-10-13T08:11:34.750Z,10.74
2022-10-13T08:14:03.608Z,10.88
2022-10-13T08:16:34.304Z,10.92
2022-10-13T08:19:02.486Z,10.99
2022-10-13T08:24:19.636Z,11.07
2022-10-13T08:26:48.290Z,11.15
2022-10-13T08:29:22.932Z,11.29
2022-10-13T08:31:54.361Z,11.31
2022-10-13T08:34:23.269Z,11.39
2022-10-13T08:36:53.488Z,11.28
2022-10-13T08:39:23.006Z,11.33
2022-10-13T08:41:51.748Z,11.31
2022-10-13T08:45:02.578Z,11.24
2022-10-13T08:47:22.025Z,11.17
2022-10-13T08:49:50.550Z,11.25
2022-10-13T08:52:23.699Z,11.23
2022-10-13T08:54:54.501Z,11.28
2022-10-13T08:57:24.026Z,11.24
2022-10-13T08:59:54.139Z,11.18
2022-10-13T09:02:30.708Z,11.21
2022-10-13T09:05:03.874Z,11.30
2022-10-13T09:07:38.402Z,11.41
2022-10-13T09:10:21.899Z,11.44
2022-10-13T09:12:51.738Z,11.49
2022-10-13T09:15:20.917Z,11.47
2022-10-13T09:18:10.560Z,11.37
2022-10-13T09:20:39.352Z,11.38
2022-10-13T09:23:16.998Z,11.43
2022-10-13T09:25:50.204Z,11.34
2022-10-13T09:28:25.339Z,11.50
2022-10-13T09:31:04.553Z,11.48
2022-10-13T09:33:39.254Z,11.58
2022-10-13T09:36:12.579Z,11.68
2022-10-13T09:38:42.769Z,11.81
2022-10-13T09:41:17.747Z,11.94
2022-10-13T09:44:00.842Z,12.10
2022-10-13T09:46:33.739Z,12.17
2022-10-13T09:49:06.221Z,12.36
2022-10-13T09:51:39.316Z,12.39
2022-10-13T09:54:25.200Z,12.34
2022-10-13T09:56:57.373Z,12.42
2022-10-13T09:59:33.412Z,12.51
2022-10-13T10:02:05.667Z,12.51
2022-10-13T10:04:42.068Z,12.71
2022-10-13T10:07:13.683Z,12.84
2022-10-13T10:09:48.304Z,12.99
2022-10-13T10:12:28.786Z,13.07
2022-10-13T10:14:57.581Z,12.98
2022-10-13T10:17:34.845Z,12.82
2022-10-13T10:20:22.365Z,12.66
2022-10-13T10:23:00.385Z,12.58
2022-10-13T10:25:36.526Z,12.32
2022-10-13T10:28:20.330Z,12.26
2022-10-13T10:30:54.215Z,12.26
2022-10-13T10:33:27.415Z,12.19
2022-10-13T10:36:06.488Z,12.25
2022-10-13T10:38:45.167Z,12.33
2022-10-13T10:41:25.829Z,12.35
2022-10-13T10:43:58.062Z,12.39
2022-10-13T10:46:29.521Z,12.35
2022-10-13T10:49:01.870Z,12.43
2022-10-13T10:51:34.172Z,12.61
2022-10-13T10:54:14.375Z,12.76
2022-10-13T10:56:48.977Z,12.87
2022-10-13T10:59:29.687Z,13.06
2022-10-13T11:02:12.188Z,13.22
2022-10-13T11:04:43.490Z,13.49
2022-10-13T11:07:35.189Z,13.73
2022-10-13T11:10:19.405Z,13.91
2022-10-13T11:13:10.908Z,14.18
2022-10-13T11:15:47.785Z,14.26
2022-10-13T11:19:08.114Z,14.23
2022-10-13T11:22:16.863Z,13.81
2022-10-13T11:24:54.490Z,13.96
2022-10-13T11:27:42.285Z,13.84
2022-10-13T11:30:50.758Z,14.11
2022-10-13T11:33:53.555Z,14.50
2022-10-13T11:36:51.047Z,14.69
2022-10-13T11:39:51.013Z,14.52
2022-10-13T11:42:35.889Z,14.77
2022-10-13T11:45:15.013Z,14.88
2022-10-13T11:48:02.861Z,14.98
2022-10-13T11:50:44.341Z,14.98
2022-10-13T11:53:18.857Z,15.21
2022-10-13T11:55:54.257Z,15.10
2022-10-13T11:58:24.694Z,15.21
2022-10-13T12:00:58.433Z,15.11
2022-10-13T12:03:31.908Z,14.88
2022-10-13T12:06:04.482Z,14.96
2022-10-13T12:08:35.728Z,14.89
2022-10-13T12:11:10.186Z,14.79
2022-10-13T12:13:39.403Z,14.62
2022-10-13T12:16:09.366Z,14.51
2022-10-13T12:18:39.600Z,14.58
2022-10-13T12:21:14.534Z,14.55
2022-10-13T12:23:43.241Z,14.45
2022-10-13T12:26:20.928Z,14.45
2022-10-13T12:28:53.359Z,14.48
2022-10-13T12:31:24.785Z,14.62
2022-10-13T12:33:54.982Z,14.61
2022-10-13T12:36:30.051Z,14.69
2022-10-13T12:39:03.295Z,14.53
2022-10-13T12:41:35.574Z,14.54
2022-10-13T12:44:06.920Z,14.65
2022-10-13T12:46:40.365Z,14.73
2022-10-13T12:49:14.590Z,14.87
2022-10-13T12:51:47.020Z,14.94
2022-10-13T12:54:24.799Z,15.08
2022-10-13T12:56:59.128Z,15.03
2022-10-13T12:59:29.666Z,14.92
2022-10-13T13:02:00.709Z,14.80
2022-10-13T13:04:43.897Z,14.79
2022-10-13T13:07:32.885Z,14.85
2022-10-13T13:10:26.350Z,14.85
2022-10-13T13:12:57.169Z,14.89
2022-10-13T13:15:38.866Z,14.80
2022-10-13T13:18:35.970Z,14.58
2022-10-13T13:21:07.078Z,14.63
2022-10-13T13:23:59.479Z,14.42
2022-10-13T13:26:30.158Z,14.39
2022-10-13T13:29:01.061Z,14.44
2022-10-13T13:31:30.384Z,14.44
2022-10-13T13:33:59.075Z,14.43
2022-10-13T13:36:28.354Z,14.55
2022-10-13T13:38:57.249Z,14.57
2022-10-13T13:41:27.925Z,14.65
2022-10-13T13:44:01.503Z,14.79
2022-10-13T13:46:32.932Z,14.66
2022-10-13T13:49:02.453Z,14.58
2022-10-13T13:51:32.939Z,14.59
2022-10-13T13:54:01.675Z,14.51
2022-10-13T13:56:29.952Z,14.55
2022-10-13T13:58:59.592Z,14.52
2022-10-13T14:01:28.121Z,14.47
2022-10-13T14:03:56.657Z,14.31
2022-10-13T14:06:25.032Z,14.36
2022-10-13T14:08:53.205Z,14.41
2022-10-13T14:11:21.517Z,14.40
2022-10-13T14:13:49.768Z,14.34
2022-10-13T14:16:19.489Z,14.21
2022-10-13T14:18:47.789Z,14.07
2022-10-13T14:21:16.104Z,14.05
2022-10-13T14:23:47.118Z,14.05
2022-10-13T14:26:15.583Z,14.04
2022-10-13T14:28:45.154Z,14.16
2022-10-13T14:31:13.670Z,14.04
2022-10-13T14:33:43.733Z,14.06
2022-10-13T14:36:12.282Z,14.08
2022-10-13T14:38:40.463Z,14.19
2022-10-13T14:41:08.946Z,14.15
2022-10-13T14:43:37.220Z,14.24
2022-10-13T14:46:07.169Z,14.27
2022-10-13T14:48:37.174Z,14.43
2022-10-13T14:51:08.265Z,14.44
2022-10-13T14:53:38.562Z,14.50
2022-10-13T14:56:17.517Z,14.62
2022-10-13T14:58:46.830Z,14.65
2022-10-13T15:01:15.210Z,14.46
2022-10-13T15:03:44.066Z,14.52
2022-10-13T15:06:16.416Z,14.41
2022-10-13T15:08:46.033Z,14.38
2022-10-13T15:11:15.460Z,14.33
2022-10-13T15:13:43.878Z,14.26
2022-10-13T15:16:17.675Z,14.29
2022-10-13T15:18:46.113Z,14.21
2022-10-13T15:21:16.765Z,14.25
2022-10-13T15:23:45.647Z,14.29
2022-10-13T15:26:16.149Z,14.08
2022-10-13T15:28:46.472Z,14.04
2022-10-13T15:31:16.631Z,14.02
2022-10-13T15:33:46.679Z,13.97
2022-10-13T15:36:17.177Z,13.89
2022-10-13T15:38:45.623Z,13.84
2022-10-13T15:41:14.703Z,13.80
2022-10-13T15:43:44.511Z,13.78
2022-10-13T15:46:21.121Z,13.67
2022-10-13T15:48:49.859Z,13.61
2022-10-13T15:51:21.779Z,13.61
2022-10-13T15:53:50.598Z,13.57
2022-10-13T15:56:19.102Z,13.52
2022-10-13T15:58:48.674Z,13.40
2022-10-13T16:01:18.091Z,13.39
2022-10-13T16:03:46.354Z,13.31
2022-10-13T16:06:15.036Z,13.18
2022-10-13T16:08:45.113Z,13.09
2022-10-13T16:11:16.163Z,13.01
2022-10-13T16:13:47.467Z,12.92
2022-10-13T16:16:16.611Z,12.86
2022-10-13T16:18:45.255Z,12.82
2022-10-13T16:21:18.567Z,12.72
2022-10-13T16:23:49.842Z,12.67
2022-10-13T16:26:19.438Z,12.58
2022-10-13T16:28:47.874Z,12.60
2022-10-13T16:31:18.274Z,12.49
2022-10-13T16:33:47.491Z,12.56
2022-10-13T16:36:17.560Z,12.55
2022-10-13T16:38:47.407Z,12.54
2022-10-13T16:41:18.883Z,12.52
2022-10-13T16:43:48.257Z,12.51
2022-10-13T16:46:18.118Z,12.48
2022-10-13T16:48:48.214Z,12.48
2022-10-13T16:51:18.978Z,12.48
2022-10-13T16:53:51.116Z,12.42
2022-10-13T16:56:24.471Z,12.45
2022-10-13T16:58:54.990Z,12.43
2022-10-13T17:01:23.838Z,12.42
2022-10-13T17:03:53.036Z,12.42
2022-10-13T17:06:22.768Z,12.41
2022-10-13T17:08:51.576Z,12.38
2022-10-13T17:11:25.005Z,12.37
2022-10-13T17:13:53.803Z,12.34
2022-10-13T17:16:23.363Z,12.40
2022-10-13T17:18:51.701Z,12.38
2022-10-13T17:21:21.486Z,12.29
2022-10-13T17:23:50.957Z,12.28
2022-10-13T17:26:21.636Z,12.28
2022-10-13T17:28:50.165Z,12.06
2022-10-13T17:31:23.237Z,12.05
2022-10-13T17:33:54.347Z,12.01
2022-10-13T17:36:25.279Z,11.94
2022-10-13T17:38:55.860Z,11.87
2022-10-13T17:41:26.669Z,11.82
2022-10-13T17:43:54.870Z,11.66
2022-10-13T17:46:36.130Z,11.67
2022-10-13T17:49:06.223Z,11.67
2022-10-13T17:51:34.507Z,11.62
2022-10-13T17:54:04.358Z,11.58
2022-10-13T17:56:36.389Z,11.66
2022-10-13T17:59:05.540Z,11.68
2022-10-13T18:01:36.586Z,11.66
2022-10-13T18:04:09.319Z,11.66
2022-10-13T18:06:41.934Z,11.68
2022-10-13T18:09:17.147Z,11.69
2022-10-13T18:11:51.355Z,11.62
2022-10-13T18:14:21.010Z,11.54
2022-10-13T18:16:50.157Z,11.55
2022-10-13T18:19:19.108Z,11.57
2022-10-13T18:21:50.016Z,11.54
2022-10-13T18:24:18.942Z,11.53
2022-10-13T18:26:50.450Z,11.52
2022-10-13T18:29:19.707Z,11.51
2022-10-13T18:31:48.355Z,11.50
2022-10-13T18:34:18.629Z,11.40
2022-10-13T18:36:48.633Z,11.48
2022-10-13T18:39:19.037Z,11.48
2022-10-13T18:41:50.272Z,11.51
2022-10-13T18:44:19.178Z,11.50
2022-10-13T18:46:51.008Z,11.52
2022-10-13T18:49:23.215Z,11.55
2022-10-13T18:51:52.545Z,11.55
2022-10-13T18:54:23.260Z,11.59
2022-10-13T18:56:54.069Z,11.57
2022-10-13T18:59:22.485Z,11.62
2022-10-13T19:01:50.872Z,11.61
2022-10-13T19:04:19.988Z,11.51
2022-10-13T19:06:49.040Z,11.54
2022-10-13T19:09:19.214Z,11.51
2022-10-13T19:11:47.789Z,11.47
2022-10-13T19:14:17.564Z,11.41
2022-10-13T19:16:46.259Z,11.41
2022-10-13T19:19:15.969Z,11.40
2022-10-13T19:21:45.022Z,11.47
2022-10-13T19:24:13.489Z,11.44
2022-10-13T19:26:41.892Z,11.44
2022-10-13T19:29:12.089Z,11.45
2022-10-13T19:31:44.026Z,11.43
2022-10-13T19:34:16.058Z,11.39
2022-10-13T19:36:46.723Z,11.33
2022-10-13T19:39:16.807Z,11.25
2022-10-13T19:41:46.094Z,11.15
2022-10-13T19:44:16.291Z,11.08
2022-10-13T19:46:47.752Z,11.03
2022-10-13T19:49:18.386Z,10.99
2022-10-13T19:51:47.588Z,11.05
2022-10-13T19:54:18.849Z,11.05
2022-10-13T19:56:48.659Z,10.97
2022-10-13T19:59:17.871Z,11.04
2022-10-13T20:01:48.289Z,11.00
2022-10-13T20:04:21.065Z,11.00
2022-10-13T20:06:50.389Z,11.04
2022-10-13T20:09:19.716Z,11.04
2022-10-13T20:11:50.628Z,11.00
2022-10-13T20:14:19.079Z,10.91
2022-10-13T20:16:49.336Z,10.91
2022-10-13T20:19:19.638Z,10.89
2022-10-13T20:21:51.870Z,10.80
2022-10-13T20:24:21.128Z,10.80
2022-10-13T20:26:49.447Z,10.77
2022-10-13T20:29:18.814Z,10.71
2022-10-13T20:31:48.936Z,10.71
2022-10-13T20:34:17.448Z,10.63
2022-10-13T20:36:45.740Z,10.63
2022-10-13T20:39:14.191Z,10.56
2022-10-13T20:41:42.796Z,10.58
2022-10-13T20:44:11.672Z,10.56
2022-10-13T20:46:40.245Z,10.53
2022-10-13T20:49:11.894Z,10.46
2022-10-13T20:51:41.228Z,10.48
2022-10-13T20:54:10.046Z,10.48
2022-10-13T20:56:38.688Z,10.35
2022-10-13T20:59:09.632Z,10.38
2022-10-13T21:01:38.448Z,10.43
2022-10-13T21:04:10.503Z,10.36
2022-10-13T21:06:38.815Z,10.29
2022-10-13T21:09:07.883Z,10.37
2022-10-13T21:11:37.006Z,10.35
2022-10-13T21:14:07.262Z,10.32
2022-10-13T21:16:36.635Z,10.28
2022-10-13T21:19:06.040Z,10.29
2022-10-13T21:21:36.605Z,10.20
2022-10-13T21:24:07.342Z,10.21
2022-10-13T21:26:36.455Z,10.23
2022-10-13T21:29:05.389Z,10.21
2022-10-13T21:31:33.777Z,10.17
2022-10-13T21:34:02.054Z,10.14
2022-10-13T21:36:32.487Z,10.22
2022-10-13T21:39:03.939Z,10.21
2022-10-13T21:41:32.949Z,10.21
2022-10-13T21:44:01.543Z,10.25
2022-10-13T21:46:32.001Z,10.28
2022-10-13T21:49:03.110Z,10.28
2022-10-13T21:51:33.882Z,10.24
2022-10-13T21:54:06.867Z,10.24
2022-10-13T21:56:36.199Z,10.23
2022-10-13T21:59:04.745Z,10.23
2022-10-13T22:01:33.213Z,10.20
2022-10-13T22:04:02.943Z,10.21
2022-10-13T22:06:32.980Z,10.25
2022-10-13T22:09:05.292Z,10.25
2022-10-13T22:11:36.872Z,10.23
2022-10-13T22:14:06.087Z,10.26
2022-10-13T22:16:38.341Z,10.30
2022-10-13T22:19:07.342Z,10.33
2022-10-13T22:21:37.674Z,10.28
2022-10-13T22:24:09.838Z,10.33
2022-10-13T22:26:41.352Z,10.37
2022-10-13T22:29:11.992Z,10.41
2022-10-13T22:31:40.660Z,10.41
2022-10-13T22:34:08.985Z,10.37
2022-10-13T22:36:41.063Z,10.39
2022-10-13T22:39:14.367Z,10.28
2022-10-13T22:41:43.270Z,10.27
2022-10-13T22:44:11.907Z,10.34
2022-10-13T22:46:41.603Z,10.28
2022-10-13T22:49:10.683Z,10.34
2022-10-13T22:51:39.530Z,10.27
2022-10-13T22:54:08.363Z,10.28
2022-10-13T22:56:39.098Z,10.29
2022-10-13T22:59:08.970Z,10.18
2022-10-13T23:01:37.497Z,10.30
2022-10-13T23:04:06.087Z,10.26
2022-10-13T23:06:36.044Z,10.26
2022-10-13T23:09:07.177Z,10.22
2022-10-13T23:11:36.243Z,10.17
2022-10-13T23:14:06.325Z,10.17
2022-10-13T23:16:35.571Z,10.16
2022-10-13T23:19:04.262Z,10.17
2022-10-13T23:21:32.903Z,10.11
2022-10-13T23:24:03.025Z,10.17
2022-10-13T23:26:33.313Z,10.22
2022-10-13T23:29:02.510Z,10.24
2022-10-13T23:31:32.909Z,10.24
2022-10-13T23:34:01.497Z,10.13
2022-10-13T23:36:32.538Z,10.15
2022-10-13T23:39:02.759Z,10.30
2022-10-13T23:41:31.853Z,10.20
2022-10-13T23:44:00.399Z,10.24
2022-10-13T23:46:29.230Z,10.33
2022-10-13T23:48:59.522Z,10.30
2022-10-13T23:51:28.570Z,10.37
2022-10-13T23:53:57.552Z,10.30
2022-10-13T23:56:26.325Z,10.36
2022-10-13T23:58:55.128Z,10.40
